sensor_id;sensor_type;location;lat;lon;timestamp;P1;durP1;ratioP1;P2;durP2;ratioP2
72379;SDS011;60354;47.798;12.472;2024-03-08T00:00:05;18.70;;;10.77;;
72379;SDS011;60354;47.798;12.472;2024-03-08T00:02:36;18.70;;;10.80;;
72379;SDS011;60354;47.798;12.472;2024-03-08T00:05:03;20.02;;;10.38;;
72379;SDS011;60354;47.798;12.472;2024-03-08T00:07:29;21.45;;;11.20;;
72379;SDS011;60354;47.798;12.472;2024-03-08T00:09:55;20.65;;;11.00;;
72379;SDS011;60354;47.798;12.472;2024-03-08T00:12:20;19.20;;;10.68;;
72379;SDS011;60354;47.798;12.472;2024-03-08T00:14:50;20.80;;;10.95;;
72379;SDS011;60354;47.798;12.472;2024-03-08T00:17:15;17.67;;;10.35;;
72379;SDS011;60354;47.798;12.472;2024-03-08T00:19:40;19.50;;;11.07;;
72379;SDS011;60354;47.798;12.472;2024-03-08T00:22:06;18.42;;;9.93;;
72379;SDS011;60354;47.798;12.472;2024-03-08T00:24:33;21.67;;;10.40;;
72379;SDS011;60354;47.798;12.472;2024-03-08T00:26:58;17.23;;;10.02;;
72379;SDS011;60354;47.798;12.472;2024-03-08T00:29:24;17.58;;;10.07;;
72379;SDS011;60354;47.798;12.472;2024-03-08T00:31:49;21.75;;;10.48;;
72379;SDS011;60354;47.798;12.472;2024-03-08T00:34:15;19.65;;;10.50;;
72379;SDS011;60354;47.798;12.472;2024-03-08T00:36:41;22.23;;;10.75;;
72379;SDS011;60354;47.798;12.472;2024-03-08T00:39:06;21.45;;;11.07;;
72379;SDS011;60354;47.798;12.472;2024-03-08T00:41:32;21.98;;;11.68;;
72379;SDS011;60354;47.798;12.472;2024-03-08T00:43:58;23.42;;;10.93;;
72379;SDS011;60354;47.798;12.472;2024-03-08T00:46:23;18.08;;;10.27;;
72379;SDS011;60354;47.798;12.472;2024-03-08T00:48:49;20.77;;;11.93;;
72379;SDS011;60354;47.798;12.472;2024-03-08T00:51:14;22.50;;;12.15;;
72379;SDS011;60354;47.798;12.472;2024-03-08T00:53:43;20.40;;;11.20;;
72379;SDS011;60354;47.798;12.472;2024-03-08T00:56:08;22.02;;;11.13;;
72379;SDS011;60354;47.798;12.472;2024-03-08T00:58:37;20.25;;;10.52;;
72379;SDS011;60354;47.798;12.472;2024-03-08T01:01:02;18.77;;;10.43;;
72379;SDS011;60354;47.798;12.472;2024-03-08T01:03:30;19.75;;;10.40;;
72379;SDS011;60354;47.798;12.472;2024-03-08T01:05:59;16.90;;;9.32;;
72379;SDS011;60354;47.798;12.472;2024-03-08T01:08:26;20.42;;;10.15;;
72379;SDS011;60354;47.798;12.472;2024-03-08T01:10:52;18.42;;;10.00;;
72379;SDS011;60354;47.798;12.472;2024-03-08T01:13:18;17.40;;;9.40;;
72379;SDS011;60354;47.798;12.472;2024-03-08T01:15:44;19.27;;;9.82;;
72379;SDS011;60354;47.798;12.472;2024-03-08T01:18:11;18.77;;;10.23;;
72379;SDS011;60354;47.798;12.472;2024-03-08T01:20:36;15.80;;;9.68;;
72379;SDS011;60354;47.798;12.472;2024-03-08T01:23:02;17.40;;;10.02;;
72379;SDS011;60354;47.798;12.472;2024-03-08T01:25:28;17.10;;;9.90;;
72379;SDS011;60354;47.798;12.472;2024-03-08T01:27:54;17.48;;;8.77;;
72379;SDS011;60354;47.798;12.472;2024-03-08T01:30:19;19.20;;;10.07;;
72379;SDS011;60354;47.798;12.472;2024-03-08T01:32:45;17.60;;;9.77;;
72379;SDS011;60354;47.798;12.472;2024-03-08T01:35:10;19.35;;;10.20;;
72379;SDS011;60354;47.798;12.472;2024-03-08T01:37:36;23.55;;;10.57;;
72379;SDS011;60354;47.798;12.472;2024-03-08T01:40:02;19.25;;;10.45;;
72379;SDS011;60354;47.798;12.472;2024-03-08T01:42:28;19.02;;;10.27;;
72379;SDS011;60354;47.798;12.472;2024-03-08T01:44:54;18.60;;;9.77;;
72379;SDS011;60354;47.798;12.472;2024-03-08T01:47:20;17.65;;;10.10;;
72379;SDS011;60354;47.798;12.472;2024-03-08T01:49:48;16.67;;;9.63;;
72379;SDS011;60354;47.798;12.472;2024-03-08T01:52:15;18.80;;;10.15;;
72379;SDS011;60354;47.798;12.472;2024-03-08T01:54:43;23.67;;;13.35;;
72379;SDS011;60354;47.798;12.472;2024-03-08T01:57:10;23.08;;;12.45;;
72379;SDS011;60354;47.798;12.472;2024-03-08T01:59:36;23.15;;;11.65;;
72379;SDS011;60354;47.798;12.472;2024-03-08T02:02:02;19.63;;;10.85;;
72379;SDS011;60354;47.798;12.472;2024-03-08T02:04:29;20.88;;;10.68;;
72379;SDS011;60354;47.798;12.472;2024-03-08T02:06:56;18.60;;;10.70;;
72379;SDS011;60354;47.798;12.472;2024-03-08T02:09:23;20.00;;;10.00;;
72379;SDS011;60354;47.798;12.472;2024-03-08T02:11:50;18.88;;;10.75;;
72379;SDS011;60354;47.798;12.472;2024-03-08T02:14:16;20.05;;;10.63;;
72379;SDS011;60354;47.798;12.472;2024-03-08T02:16:44;22.02;;;10.80;;
72379;SDS011;60354;47.798;12.472;2024-03-08T02:19:09;17.45;;;9.85;;
72379;SDS011;60354;47.798;12.472;2024-03-08T02:21:35;20.33;;;10.27;;
72379;SDS011;60354;47.798;12.472;2024-03-08T02:24:01;22.50;;;10.50;;
72379;SDS011;60354;47.798;12.472;2024-03-08T02:26:27;19.33;;;9.63;;
72379;SDS011;60354;47.798;12.472;2024-03-08T02:28:52;21.90;;;9.75;;
72379;SDS011;60354;47.798;12.472;2024-03-08T02:31:18;19.10;;;9.43;;
72379;SDS011;60354;47.798;12.472;2024-03-08T02:33:43;19.08;;;9.82;;
72379;SDS011;60354;47.798;12.472;2024-03-08T02:36:09;18.90;;;10.35;;
72379;SDS011;60354;47.798;12.472;2024-03-08T02:38:34;20.25;;;9.85;;
72379;SDS011;60354;47.798;12.472;2024-03-08T02:41:00;21.67;;;10.18;;
72379;SDS011;60354;47.798;12.472;2024-03-08T02:43:25;18.35;;;10.23;;
72379;SDS011;60354;47.798;12.472;2024-03-08T02:45:51;20.08;;;9.68;;
72379;SDS011;60354;47.798;12.472;2024-03-08T02:48:18;20.40;;;10.23;;
72379;SDS011;60354;47.798;12.472;2024-03-08T02:50:43;21.35;;;10.27;;
72379;SDS011;60354;47.798;12.472;2024-03-08T02:53:09;19.75;;;9.93;;
72379;SDS011;60354;47.798;12.472;2024-03-08T02:55:36;19.42;;;9.77;;
72379;SDS011;60354;47.798;12.472;2024-03-08T02:58:06;18.77;;;9.48;;
72379;SDS011;60354;47.798;12.472;2024-03-08T03:00:35;19.90;;;10.50;;
72379;SDS011;60354;47.798;12.472;2024-03-08T03:03:01;21.73;;;10.52;;
72379;SDS011;60354;47.798;12.472;2024-03-08T03:05:28;21.08;;;9.80;;
72379;SDS011;60354;47.798;12.472;2024-03-08T03:07:54;18.90;;;9.27;;
72379;SDS011;60354;47.798;12.472;2024-03-08T03:10:20;19.00;;;9.38;;
72379;SDS011;60354;47.798;12.472;2024-03-08T03:12:47;23.90;;;10.32;;
72379;SDS011;60354;47.798;12.472;2024-03-08T03:15:13;18.15;;;9.05;;
72379;SDS011;60354;47.798;12.472;2024-03-08T03:17:39;17.77;;;9.15;;
72379;SDS011;60354;47.798;12.472;2024-03-08T03:20:06;16.77;;;9.27;;
72379;SDS011;60354;47.798;12.472;2024-03-08T03:22:36;17.67;;;9.13;;
72379;SDS011;60354;47.798;12.472;2024-03-08T03:25:02;18.80;;;9.55;;
72379;SDS011;60354;47.798;12.472;2024-03-08T03:27:29;18.52;;;9.50;;
72379;SDS011;60354;47.798;12.472;2024-03-08T03:29:55;17.55;;;9.25;;
72379;SDS011;60354;47.798;12.472;2024-03-08T03:32:22;20.02;;;10.15;;
72379;SDS011;60354;47.798;12.472;2024-03-08T03:34:48;19.70;;;9.65;;
72379;SDS011;60354;47.798;12.472;2024-03-08T03:37:18;19.67;;;9.55;;
72379;SDS011;60354;47.798;12.472;2024-03-08T03:39:45;16.60;;;9.32;;
72379;SDS011;60354;47.798;12.472;2024-03-08T03:44:47;17.73;;;9.18;;
72379;SDS011;60354;47.798;12.472;2024-03-08T03:47:13;19.30;;;10.07;;
72379;SDS011;60354;47.798;12.472;2024-03-08T03:49:40;18.20;;;9.38;;
72379;SDS011;60354;47.798;12.472;2024-03-08T03:52:06;17.33;;;9.40;;
72379;SDS011;60354;47.798;12.472;2024-03-08T03:54:32;19.65;;;9.82;;
72379;SDS011;60354;47.798;12.472;2024-03-08T03:56:58;29.00;;;11.85;;
72379;SDS011;60354;47.798;12.472;2024-03-08T03:59:25;26.63;;;11.52;;
72379;SDS011;60354;47.798;12.472;2024-03-08T04:01:52;26.02;;;11.98;;
72379;SDS011;60354;47.798;12.472;2024-03-08T04:04:18;28.05;;;12.82;;
72379;SDS011;60354;47.798;12.472;2024-03-08T04:06:44;27.67;;;12.27;;
72379;SDS011;60354;47.798;12.472;2024-03-08T04:09:10;30.73;;;13.27;;
72379;SDS011;60354;47.798;12.472;2024-03-08T04:11:36;36.05;;;14.63;;
72379;SDS011;60354;47.798;12.472;2024-03-08T04:14:01;29.30;;;13.13;;
72379;SDS011;60354;47.798;12.472;2024-03-08T04:16:27;32.60;;;13.02;;
72379;SDS011;60354;47.798;12.472;2024-03-08T04:18:53;35.97;;;13.77;;
72379;SDS011;60354;47.798;12.472;2024-03-08T04:21:19;40.28;;;13.00;;
72379;SDS011;60354;47.798;12.472;2024-03-08T04:23:44;45.03;;;13.93;;
72379;SDS011;60354;47.798;12.472;2024-03-08T04:26:10;24.95;;;12.30;;
72379;SDS011;60354;47.798;12.472;2024-03-08T04:28:36;53.10;;;13.18;;
72379;SDS011;60354;47.798;12.472;2024-03-08T04:31:03;39.88;;;13.07;;
72379;SDS011;60354;47.798;12.472;2024-03-08T04:33:28;60.60;;;13.50;;
72379;SDS011;60354;47.798;12.472;2024-03-08T04:35:54;24.25;;;12.68;;
72379;SDS011;60354;47.798;12.472;2024-03-08T04:38:19;42.95;;;15.88;;
72379;SDS011;60354;47.798;12.472;2024-03-08T04:40:45;35.13;;;14.18;;
72379;SDS011;60354;47.798;12.472;2024-03-08T04:43:10;67.65;;;12.05;;
72379;SDS011;60354;47.798;12.472;2024-03-08T04:45:36;26.00;;;11.60;;
72379;SDS011;60354;47.798;12.472;2024-03-08T04:48:02;62.55;;;12.75;;
72379;SDS011;60354;47.798;12.472;2024-03-08T04:50:27;67.82;;;14.75;;
72379;SDS011;60354;47.798;12.472;2024-03-08T04:52:56;45.17;;;13.40;;
72379;SDS011;60354;47.798;12.472;2024-03-08T04:55:21;34.05;;;12.30;;
72379;SDS011;60354;47.798;12.472;2024-03-08T04:57:48;72.90;;;14.57;;
72379;SDS011;60354;47.798;12.472;2024-03-08T05:00:14;41.45;;;12.68;;
72379;SDS011;60354;47.798;12.472;2024-03-08T05:02:41;76.30;;;11.88;;
72379;SDS011;60354;47.798;12.472;2024-03-08T05:05:07;38.03;;;11.52;;
72379;SDS011;60354;47.798;12.472;2024-03-08T05:07:34;56.40;;;11.55;;
72379;SDS011;60354;47.798;12.472;2024-03-08T05:10:00;40.53;;;11.73;;
72379;SDS011;60354;47.798;12.472;2024-03-08T05:12:27;40.92;;;12.73;;
72379;SDS011;60354;47.798;12.472;2024-03-08T05:14:53;39.83;;;14.20;;
72379;SDS011;60354;47.798;12.472;2024-03-08T05:17:19;39.25;;;14.88;;
72379;SDS011;60354;47.798;12.472;2024-03-08T05:19:44;38.80;;;15.38;;
72379;SDS011;60354;47.798;12.472;2024-03-08T05:22:10;42.33;;;13.68;;
72379;SDS011;60354;47.798;12.472;2024-03-08T05:24:35;47.53;;;12.15;;
72379;SDS011;60354;47.798;12.472;2024-03-08T05:27:01;44.15;;;12.95;;
72379;SDS011;60354;47.798;12.472;2024-03-08T05:29:28;35.63;;;11.68;;
72379;SDS011;60354;47.798;12.472;2024-03-08T05:31:54;50.38;;;12.43;;
72379;SDS011;60354;47.798;12.472;2024-03-08T05:34:20;69.78;;;11.80;;
72379;SDS011;60354;47.798;12.472;2024-03-08T05:36:47;45.08;;;11.70;;
72379;SDS011;60354;47.798;12.472;2024-03-08T05:39:16;70.03;;;11.18;;
72379;SDS011;60354;47.798;12.472;2024-03-08T05:41:42;57.78;;;10.90;;
72379;SDS011;60354;47.798;12.472;2024-03-08T05:44:08;110.97;;;12.43;;
72379;SDS011;60354;47.798;12.472;2024-03-08T05:46:34;53.53;;;11.52;;
72379;SDS011;60354;47.798;12.472;2024-03-08T05:49:03;72.22;;;10.63;;
72379;SDS011;60354;47.798;12.472;2024-03-08T05:51:33;39.30;;;10.43;;
72379;SDS011;60354;47.798;12.472;2024-03-08T05:54:00;36.25;;;9.18;;
72379;SDS011;60354;47.798;12.472;2024-03-08T05:56:31;42.75;;;9.18;;
72379;SDS011;60354;47.798;12.472;2024-03-08T05:58:57;40.25;;;9.70;;
72379;SDS011;60354;47.798;12.472;2024-03-08T06:01:25;46.65;;;11.77;;
72379;SDS011;60354;47.798;12.472;2024-03-08T06:03:55;36.15;;;9.93;;
72379;SDS011;60354;47.798;12.472;2024-03-08T06:06:22;26.85;;;11.15;;
72379;SDS011;60354;47.798;12.472;2024-03-08T06:08:48;48.53;;;9.38;;
72379;SDS011;60354;47.798;12.472;2024-03-08T06:11:14;36.38;;;10.10;;
72379;SDS011;60354;47.798;12.472;2024-03-08T06:13:40;19.95;;;9.98;;
72379;SDS011;60354;47.798;12.472;2024-03-08T06:16:06;36.05;;;9.77;;
72379;SDS011;60354;47.798;12.472;2024-03-08T06:18:36;29.65;;;9.95;;
72379;SDS011;60354;47.798;12.472;2024-03-08T06:21:02;21.85;;;10.52;;
72379;SDS011;60354;47.798;12.472;2024-03-08T06:23:31;40.30;;;10.38;;
72379;SDS011;60354;47.798;12.472;2024-03-08T06:26:09;25.23;;;10.18;;
72379;SDS011;60354;47.798;12.472;2024-03-08T06:28:34;30.85;;;10.60;;
72379;SDS011;60354;47.798;12.472;2024-03-08T06:31:00;33.13;;;10.27;;
72379;SDS011;60354;47.798;12.472;2024-03-08T06:33:26;32.85;;;10.40;;
72379;SDS011;60354;47.798;12.472;2024-03-08T06:35:52;36.20;;;10.60;;
72379;SDS011;60354;47.798;12.472;2024-03-08T06:38:19;13.75;;;8.73;;
72379;SDS011;60354;47.798;12.472;2024-03-08T06:40:45;25.13;;;8.38;;
72379;SDS011;60354;47.798;12.472;2024-03-08T06:43:13;30.67;;;8.77;;
72379;SDS011;60354;47.798;12.472;2024-03-08T06:45:43;25.20;;;8.48;;
72379;SDS011;60354;47.798;12.472;2024-03-08T06:48:19;25.05;;;8.35;;
72379;SDS011;60354;47.798;12.472;2024-03-08T06:50:45;14.05;;;8.10;;
72379;SDS011;60354;47.798;12.472;2024-03-08T06:53:12;14.50;;;8.93;;
72379;SDS011;60354;47.798;12.472;2024-03-08T06:55:38;15.70;;;9.20;;
72379;SDS011;60354;47.798;12.472;2024-03-08T06:58:04;16.17;;;9.15;;
72379;SDS011;60354;47.798;12.472;2024-03-08T07:00:32;21.08;;;10.40;;
72379;SDS011;60354;47.798;12.472;2024-03-08T07:02:58;18.95;;;10.35;;
72379;SDS011;60354;47.798;12.472;2024-03-08T07:05:29;19.70;;;11.00;;
72379;SDS011;60354;47.798;12.472;2024-03-08T07:07:55;18.85;;;9.07;;
72379;SDS011;60354;47.798;12.472;2024-03-08T07:10:23;15.52;;;9.32;;
72379;SDS011;60354;47.798;12.472;2024-03-08T07:12:53;14.52;;;8.75;;
72379;SDS011;60354;47.798;12.472;2024-03-08T07:15:19;14.35;;;8.57;;
72379;SDS011;60354;47.798;12.472;2024-03-08T07:17:45;17.60;;;9.57;;
72379;SDS011;60354;47.798;12.472;2024-03-08T07:20:12;16.85;;;9.65;;
72379;SDS011;60354;47.798;12.472;2024-03-08T07:22:38;15.27;;;9.27;;
72379;SDS011;60354;47.798;12.472;2024-03-08T07:25:07;14.93;;;8.75;;
72379;SDS011;60354;47.798;12.472;2024-03-08T07:27:51;14.50;;;8.18;;
72379;SDS011;60354;47.798;12.472;2024-03-08T07:30:18;13.90;;;8.07;;
72379;SDS011;60354;47.798;12.472;2024-03-08T07:33:02;13.40;;;8.20;;
72379;SDS011;60354;47.798;12.472;2024-03-08T07:35:28;14.07;;;8.82;;
72379;SDS011;60354;47.798;12.472;2024-03-08T07:37:54;14.93;;;8.65;;
72379;SDS011;60354;47.798;12.472;2024-03-08T07:40:23;14.05;;;7.90;;
72379;SDS011;60354;47.798;12.472;2024-03-08T07:42:51;17.50;;;10.00;;
72379;SDS011;60354;47.798;12.472;2024-03-08T07:45:17;16.05;;;9.55;;
72379;SDS011;60354;47.798;12.472;2024-03-08T07:47:43;16.63;;;8.65;;
72379;SDS011;60354;47.798;12.472;2024-03-08T07:50:09;16.80;;;9.40;;
72379;SDS011;60354;47.798;12.472;2024-03-08T07:52:35;16.55;;;9.60;;
72379;SDS011;60354;47.798;12.472;2024-03-08T07:55:01;17.20;;;9.50;;
72379;SDS011;60354;47.798;12.472;2024-03-08T07:57:28;17.63;;;9.02;;
72379;SDS011;60354;47.798;12.472;2024-03-08T07:59:55;15.95;;;9.52;;
72379;SDS011;60354;47.798;12.472;2024-03-08T08:02:20;18.98;;;8.63;;
72379;SDS011;60354;47.798;12.472;2024-03-08T08:04:46;15.35;;;9.07;;
72379;SDS011;60354;47.798;12.472;2024-03-08T08:07:11;15.65;;;8.65;;
72379;SDS011;60354;47.798;12.472;2024-03-08T08:09:37;14.43;;;8.25;;
72379;SDS011;60354;47.798;12.472;2024-03-08T08:12:03;15.90;;;8.90;;
72379;SDS011;60354;47.798;12.472;2024-03-08T08:14:29;17.55;;;9.13;;
72379;SDS011;60354;47.798;12.472;2024-03-08T08:16:56;13.98;;;8.25;;
72379;SDS011;60354;47.798;12.472;2024-03-08T08:19:22;15.43;;;8.82;;
72379;SDS011;60354;47.798;12.472;2024-03-08T08:21:48;14.38;;;8.35;;
72379;SDS011;60354;47.798;12.472;2024-03-08T08:24:14;13.55;;;7.75;;
72379;SDS011;60354;47.798;12.472;2024-03-08T08:26:39;14.98;;;8.18;;
72379;SDS011;60354;47.798;12.472;2024-03-08T08:29:05;15.52;;;8.38;;
72379;SDS011;60354;47.798;12.472;2024-03-08T08:31:31;13.50;;;8.20;;
72379;SDS011;60354;47.798;12.472;2024-03-08T08:33:58;13.85;;;7.90;;
72379;SDS011;60354;47.798;12.472;2024-03-08T08:36:24;12.07;;;7.60;;
72379;SDS011;60354;47.798;12.472;2024-03-08T08:38:50;13.77;;;7.63;;
72379;SDS011;60354;47.798;12.472;2024-03-08T08:41:15;13.50;;;7.88;;
72379;SDS011;60354;47.798;12.472;2024-03-08T08:43:42;14.00;;;7.70;;
72379;SDS011;60354;47.798;12.472;2024-03-08T08:46:09;12.88;;;7.07;;
72379;SDS011;60354;47.798;12.472;2024-03-08T08:48:41;12.90;;;6.85;;
72379;SDS011;60354;47.798;12.472;2024-03-08T08:51:07;15.48;;;7.35;;
72379;SDS011;60354;47.798;12.472;2024-03-08T08:53:38;13.88;;;7.97;;
72379;SDS011;60354;47.798;12.472;2024-03-08T08:56:06;12.88;;;7.68;;
72379;SDS011;60354;47.798;12.472;2024-03-08T08:58:33;13.35;;;7.22;;
72379;SDS011;60354;47.798;12.472;2024-03-08T09:00:58;12.43;;;7.07;;
72379;SDS011;60354;47.798;12.472;2024-03-08T09:03:24;12.20;;;7.38;;
72379;SDS011;60354;47.798;12.472;2024-03-08T09:05:52;14.30;;;7.18;;
72379;SDS011;60354;47.798;12.472;2024-03-08T09:08:18;12.00;;;7.00;;
72379;SDS011;60354;47.798;12.472;2024-03-08T09:10:43;12.80;;;7.25;;
72379;SDS011;60354;47.798;12.472;2024-03-08T09:13:09;10.52;;;6.93;;
72379;SDS011;60354;47.798;12.472;2024-03-08T09:15:35;12.80;;;6.90;;
72379;SDS011;60354;47.798;12.472;2024-03-08T09:18:01;10.93;;;7.20;;
72379;SDS011;60354;47.798;12.472;2024-03-08T09:20:27;12.13;;;7.22;;
72379;SDS011;60354;47.798;12.472;2024-03-08T09:22:53;14.85;;;7.35;;
72379;SDS011;60354;47.798;12.472;2024-03-08T09:25:19;13.85;;;6.93;;
72379;SDS011;60354;47.798;12.472;2024-03-08T09:27:44;12.48;;;7.28;;
72379;SDS011;60354;47.798;12.472;2024-03-08T09:30:11;15.35;;;8.10;;
72379;SDS011;60354;47.798;12.472;2024-03-08T09:32:38;13.65;;;7.93;;
72379;SDS011;60354;47.798;12.472;2024-03-08T09:35:03;12.95;;;7.55;;
72379;SDS011;60354;47.798;12.472;2024-03-08T09:37:32;12.10;;;7.50;;
72379;SDS011;60354;47.798;12.472;2024-03-08T09:39:59;11.85;;;7.35;;
72379;SDS011;60354;47.798;12.472;2024-03-08T09:42:24;12.70;;;7.72;;
72379;SDS011;60354;47.798;12.472;2024-03-08T09:44:50;12.68;;;7.35;;
72379;SDS011;60354;47.798;12.472;2024-03-08T09:47:16;12.02;;;7.25;;
72379;SDS011;60354;47.798;12.472;2024-03-08T09:49:43;12.75;;;7.82;;
72379;SDS011;60354;47.798;12.472;2024-03-08T09:52:08;11.63;;;7.50;;
72379;SDS011;60354;47.798;12.472;2024-03-08T09:54:35;12.18;;;7.10;;
72379;SDS011;60354;47.798;12.472;2024-03-08T09:57:01;11.63;;;7.32;;
72379;SDS011;60354;47.798;12.472;2024-03-08T09:59:29;13.38;;;7.50;;
72379;SDS011;60354;47.798;12.472;2024-03-08T10:02:01;12.70;;;7.32;;
72379;SDS011;60354;47.798;12.472;2024-03-08T10:04:30;12.05;;;7.97;;
72379;SDS011;60354;47.798;12.472;2024-03-08T10:07:00;12.38;;;8.18;;
72379;SDS011;60354;47.798;12.472;2024-03-08T10:09:26;11.57;;;7.15;;
72379;SDS011;60354;47.798;12.472;2024-03-08T10:11:56;17.45;;;7.80;;
72379;SDS011;60354;47.798;12.472;2024-03-08T10:14:23;12.98;;;7.47;;
72379;SDS011;60354;47.798;12.472;2024-03-08T10:16:49;11.57;;;6.40;;
72379;SDS011;60354;47.798;12.472;2024-03-08T10:19:15;12.52;;;7.28;;
72379;SDS011;60354;47.798;12.472;2024-03-08T10:21:50;12.70;;;7.10;;
72379;SDS011;60354;47.798;12.472;2024-03-08T10:24:19;10.50;;;6.80;;
72379;SDS011;60354;47.798;12.472;2024-03-08T10:26:44;11.15;;;6.82;;
72379;SDS011;60354;47.798;12.472;2024-03-08T10:29:10;11.43;;;6.50;;
72379;SDS011;60354;47.798;12.472;2024-03-08T10:31:42;10.00;;;6.63;;
72379;SDS011;60354;47.798;12.472;2024-03-08T10:34:09;11.35;;;6.35;;
72379;SDS011;60354;47.798;12.472;2024-03-08T10:36:35;15.77;;;6.63;;
72379;SDS011;60354;47.798;12.472;2024-03-08T10:39:03;10.95;;;6.40;;
72379;SDS011;60354;47.798;12.472;2024-03-08T10:41:35;12.55;;;6.38;;
72379;SDS011;60354;47.798;12.472;2024-03-08T10:49:38;10.63;;;6.22;;
72379;SDS011;60354;47.798;12.472;2024-03-08T10:52:10;10.85;;;6.57;;
72379;SDS011;60354;47.798;12.472;2024-03-08T10:54:37;11.65;;;6.55;;
72379;SDS011;60354;47.798;12.472;2024-03-08T10:57:06;8.85;;;5.95;;
72379;SDS011;60354;47.798;12.472;2024-03-08T10:59:34;9.75;;;6.15;;
72379;SDS011;60354;47.798;12.472;2024-03-08T11:02:00;8.35;;;5.78;;
72379;SDS011;60354;47.798;12.472;2024-03-08T11:04:26;9.68;;;6.30;;
72379;SDS011;60354;47.798;12.472;2024-03-08T11:06:59;9.85;;;6.03;;
72379;SDS011;60354;47.798;12.472;2024-03-08T11:12:40;10.95;;;6.60;;
72379;SDS011;60354;47.798;12.472;2024-03-08T11:14:51;8.60;;;5.53;;
72379;SDS011;60354;47.798;12.472;2024-03-08T11:18:00;9.85;;;6.25;;
72379;SDS011;60354;47.798;12.472;2024-03-08T11:22:40;11.27;;;6.40;;
72379;SDS011;60354;47.798;12.472;2024-03-08T11:25:15;10.45;;;6.55;;
72379;SDS011;60354;47.798;12.472;2024-03-08T11:28:13;10.80;;;6.50;;
72379;SDS011;60354;47.798;12.472;2024-03-08T11:31:22;10.60;;;6.43;;
72379;SDS011;60354;47.798;12.472;2024-03-08T11:33:30;10.90;;;6.95;;
72379;SDS011;60354;47.798;12.472;2024-03-08T11:36:12;11.60;;;7.18;;
72379;SDS011;60354;47.798;12.472;2024-03-08T11:38:44;9.50;;;6.18;;
72379;SDS011;60354;47.798;12.472;2024-03-08T11:41:16;11.05;;;6.43;;
72379;SDS011;60354;47.798;12.472;2024-03-08T11:43:43;12.25;;;6.40;;
72379;SDS011;60354;47.798;12.472;2024-03-08T11:46:13;11.82;;;6.75;;
72379;SDS011;60354;47.798;12.472;2024-03-08T11:48:43;10.15;;;6.43;;
72379;SDS011;60354;47.798;12.472;2024-03-08T11:51:13;9.35;;;6.50;;
72379;SDS011;60354;47.798;12.472;2024-03-08T11:53:40;9.43;;;6.50;;
72379;SDS011;60354;47.798;12.472;2024-03-08T11:56:13;11.45;;;6.45;;
72379;SDS011;60354;47.798;12.472;2024-03-08T11:58:39;12.73;;;6.85;;
72379;SDS011;60354;47.798;12.472;2024-03-08T12:01:06;11.07;;;7.13;;
72379;SDS011;60354;47.798;12.472;2024-03-08T12:03:38;12.35;;;7.53;;
72379;SDS011;60354;47.798;12.472;2024-03-08T12:06:04;14.57;;;8.25;;
72379;SDS011;60354;47.798;12.472;2024-03-08T12:08:30;12.85;;;7.60;;
72379;SDS011;60354;47.798;12.472;2024-03-08T12:10:57;11.65;;;6.97;;
72379;SDS011;60354;47.798;12.472;2024-03-08T12:13:34;12.70;;;7.70;;
72379;SDS011;60354;47.798;12.472;2024-03-08T12:16:02;11.77;;;7.53;;
72379;SDS011;60354;47.798;12.472;2024-03-08T12:18:35;12.65;;;7.30;;
72379;SDS011;60354;47.798;12.472;2024-03-08T12:21:12;15.40;;;7.78;;
72379;SDS011;60354;47.798;12.472;2024-03-08T12:23:45;11.80;;;7.32;;
72379;SDS011;60354;47.798;12.472;2024-03-08T12:28:38;12.73;;;7.90;;
72379;SDS011;60354;47.798;12.472;2024-03-08T12:31:06;13.15;;;7.45;;
72379;SDS011;60354;47.798;12.472;2024-03-08T12:33:36;15.18;;;7.60;;
72379;SDS011;60354;47.798;12.472;2024-03-08T12:36:03;10.75;;;7.00;;
72379;SDS011;60354;47.798;12.472;2024-03-08T12:38:32;12.32;;;7.90;;
72379;SDS011;60354;47.798;12.472;2024-03-08T12:40:58;12.95;;;7.57;;
72379;SDS011;60354;47.798;12.472;2024-03-08T12:43:24;13.60;;;8.30;;
72379;SDS011;60354;47.798;12.472;2024-03-08T12:45:49;13.27;;;7.90;;
72379;SDS011;60354;47.798;12.472;2024-03-08T12:48:15;15.27;;;8.05;;
72379;SDS011;60354;47.798;12.472;2024-03-08T12:50:41;14.60;;;8.35;;
72379;SDS011;60354;47.798;12.472;2024-03-08T12:53:10;16.45;;;9.40;;
72379;SDS011;60354;47.798;12.472;2024-03-08T12:55:36;14.30;;;8.90;;
72379;SDS011;60354;47.798;12.472;2024-03-08T12:58:01;15.48;;;9.63;;
72379;SDS011;60354;47.798;12.472;2024-03-08T13:00:27;19.30;;;10.40;;
72379;SDS011;60354;47.798;12.472;2024-03-08T13:02:53;19.15;;;9.95;;
72379;SDS011;60354;47.798;12.472;2024-03-08T13:05:19;17.30;;;9.98;;
72379;SDS011;60354;47.798;12.472;2024-03-08T13:07:45;17.45;;;10.57;;
72379;SDS011;60354;47.798;12.472;2024-03-08T13:10:12;18.75;;;10.65;;
72379;SDS011;60354;47.798;12.472;2024-03-08T13:12:40;15.13;;;8.75;;
72379;SDS011;60354;47.798;12.472;2024-03-08T13:15:08;15.00;;;9.35;;
72379;SDS011;60354;47.798;12.472;2024-03-08T13:17:45;17.67;;;10.27;;
72379;SDS011;60354;47.798;12.472;2024-03-08T13:20:13;16.83;;;9.55;;
72379;SDS011;60354;47.798;12.472;2024-03-08T13:22:43;17.48;;;10.43;;
72379;SDS011;60354;47.798;12.472;2024-03-08T13:25:08;15.48;;;9.50;;
72379;SDS011;60354;47.798;12.472;2024-03-08T13:27:41;15.32;;;9.40;;
72379;SDS011;60354;47.798;12.472;2024-03-08T13:30:08;16.23;;;9.90;;
72379;SDS011;60354;47.798;12.472;2024-03-08T13:32:38;15.70;;;9.93;;
72379;SDS011;60354;47.798;12.472;2024-03-08T13:35:12;14.95;;;9.38;;
72379;SDS011;60354;47.798;12.472;2024-03-08T13:37:39;17.08;;;9.80;;
72379;SDS011;60354;47.798;12.472;2024-03-08T13:40:08;15.02;;;9.35;;
72379;SDS011;60354;47.798;12.472;2024-03-08T13:42:42;16.17;;;9.93;;
72379;SDS011;60354;47.798;12.472;2024-03-08T13:45:11;15.73;;;9.63;;
72379;SDS011;60354;47.798;12.472;2024-03-08T13:47:37;17.85;;;9.95;;
72379;SDS011;60354;47.798;12.472;2024-03-08T13:50:05;15.80;;;9.35;;
72379;SDS011;60354;47.798;12.472;2024-03-08T13:52:32;14.65;;;9.48;;
72379;SDS011;60354;47.798;12.472;2024-03-08T13:55:00;14.95;;;9.13;;
72379;SDS011;60354;47.798;12.472;2024-03-08T13:57:26;16.02;;;10.13;;
72379;SDS011;60354;47.798;12.472;2024-03-08T13:59:52;15.88;;;9.60;;
72379;SDS011;60354;47.798;12.472;2024-03-08T14:02:18;19.42;;;11.07;;
72379;SDS011;60354;47.798;12.472;2024-03-08T14:04:44;16.65;;;10.23;;
72379;SDS011;60354;47.798;12.472;2024-03-08T14:07:09;20.88;;;10.48;;
72379;SDS011;60354;47.798;12.472;2024-03-08T14:09:36;18.63;;;10.35;;
72379;SDS011;60354;47.798;12.472;2024-03-08T14:12:08;23.83;;;10.57;;
72379;SDS011;60354;47.798;12.472;2024-03-08T14:14:34;17.17;;;10.00;;
72379;SDS011;60354;47.798;12.472;2024-03-08T14:17:03;18.70;;;10.35;;
72379;SDS011;60354;47.798;12.472;2024-03-08T14:19:29;17.52;;;10.27;;
72379;SDS011;60354;47.798;12.472;2024-03-08T14:21:59;19.60;;;10.43;;
72379;SDS011;60354;47.798;12.472;2024-03-08T14:24:25;17.67;;;10.60;;
72379;SDS011;60354;47.798;12.472;2024-03-08T14:26:50;17.25;;;10.30;;
72379;SDS011;60354;47.798;12.472;2024-03-08T14:29:16;18.83;;;10.93;;
72379;SDS011;60354;47.798;12.472;2024-03-08T14:31:43;18.67;;;11.45;;